NTR weather

Del Norte International Airport
Nuevo Leon, Mexico

Public forecast

Using degrees Celsius for public forecast. Weather courtesy of forecast.io.

Current aviation weather report (METAR) for Del Norte International Airport

Retrieved 2019/10/18 02:40 UTC (19 minutes ago):

MMAN 180240Z 12003KT 10SM SKC 21/14 A2995 RMK SLP/// 5//// 9// ISOL SC

Aviation forecast (TAF) for Del Norte International Airport

Forecast is more than 6 hours old.

Retrieved 2019/10/17 18:24 UTC (9 hours ago):

TAF TAF MMAN 171720Z 1718/1818 12010KT P6SM SCT030 FM180400 00000KT P6SM SKC BECMG 1810/1811 3SM BR HZ SCT010 FM181600 10006KT P6SM SKC